Time;durP1;ratioP1;P1;durP2;ratioP2;P2;SDS_P1;SDS_P2;PMS_P1;PMS_P2;Temp;Humidity;BMP_temperature;BMP_pressure;BME280_temperature;BME280_humidity;BME280_pressure;Samples;Min_cycle;Max_cycle;Signal;HPM_P1;HPM_P2
2022/08/24 00:02:26;;;;;;;4.03;1.90;;;24.30;71.20;;;;;;4961445;28;21044;-76
2022/08/24 00:04:52;;;;;;;3.30;1.70;;;24.30;71.70;;;;;;4961287;28;20708;-77
2022/08/24 00:07:19;;;;;;;2.90;1.80;;;24.20;72.00;;;;;;4978706;28;20598;-76
2022/08/24 00:09:46;;;;;;;3.20;2.00;;;24.20;72.50;;;;;;4961180;28;20681;-76
2022/08/24 00:12:13;;;;;;;3.20;1.90;;;24.20;73.00;;;;;;4978468;28;20641;-75
2022/08/24 00:14:41;;;;;;;4.60;1.60;;;24.20;73.50;;;;;;4961793;28;20674;-76
2022/08/24 00:17:07;;;;;;;4.77;2.30;;;24.20;73.90;;;;;;4978668;28;20577;-75
2022/08/24 00:19:33;;;;;;;3.70;2.10;;;24.20;74.40;;;;;;4978333;28;20618;-76
2022/08/24 00:21:59;;;;;;;2.50;1.50;;;24.10;74.70;;;;;;4961028;28;20630;-76
2022/08/24 00:24:25;;;;;;;2.50;1.33;;;24.10;75.30;;;;;;4978589;28;20989;-75
2022/08/24 00:26:52;;;;;;;4.87;1.90;;;24.10;76.20;;;;;;4978540;28;20175;-76
2022/08/24 00:29:19;;;;;;;3.50;2.03;;;24.10;76.30;;;;;;4961020;28;20575;-76
2022/08/24 00:31:46;;;;;;;3.17;1.90;;;24.10;76.80;;;;;;4961036;28;20574;-76
2022/08/24 00:34:12;;;;;;;3.70;2.10;;;24.00;77.10;;;;;;4978632;28;20606;-76
2022/08/24 00:36:40;;;;;;;3.57;1.87;;;24.00;77.50;;;;;;4978481;28;20594;-76
2022/08/24 00:39:07;;;;;;;6.20;1.90;;;24.00;78.00;;;;;;4961124;28;20614;-76
2022/08/24 00:41:34;;;;;;;2.40;1.50;;;24.00;78.60;;;;;;4960759;28;20673;-76
2022/08/24 00:44:03;;;;;;;4.10;1.70;;;23.90;78.90;;;;;;4941714;28;20641;-75
2022/08/24 00:46:58;;;;;;;3.53;2.00;;;23.90;79.60;;;;;;4957940;28;20579;-76
2022/08/24 00:49:39;;;;;;;4.90;1.80;;;23.90;80.30;;;;;;4957733;28;20955;-76
2022/08/24 00:52:10;;;;;;;3.13;1.93;;;23.80;80.30;;;;;;4975107;28;20610;-76
2022/08/24 00:54:42;;;;;;;4.67;2.10;;;23.80;81.10;;;;;;4957980;28;20585;-75
2022/08/24 00:57:10;;;;;;;7.40;2.37;;;23.80;81.40;;;;;;4975082;28;21005;-75
2022/08/24 00:59:42;;;;;;;6.93;2.07;;;23.70;81.70;;;;;;4957534;28;20627;-76
2022/08/24 01:02:14;;;;;;;3.73;1.53;;;23.70;82.40;;;;;;4974790;28;20950;-74
2022/08/24 01:04:53;;;;;;;7.87;2.40;;;23.70;83.40;;;;;;4974758;28;20686;-75
2022/08/24 01:07:21;;;;;;;3.73;1.97;;;23.70;83.80;;;;;;4974972;28;20980;-75
2022/08/24 01:09:49;;;;;;;6.50;2.70;;;23.70;83.90;;;;;;4957468;28;20571;-75
2022/08/24 01:12:16;;;;;;;4.60;2.20;;;23.60;84.20;;;;;;4957171;28;20685;-75
2022/08/24 01:14:42;;;;;;;5.33;2.00;;;23.60;84.70;;;;;;4957694;28;20591;-76
2022/08/24 01:20:14;;;;;;;7.30;2.20;;;23.60;85.80;;;;;;4880114;29;20646;-76
2022/08/24 01:23:15;;;;;;;7.73;2.57;;;23.60;86.20;;;;;;4895950;29;20610;-76
2022/08/24 01:25:43;;;;;;;3.47;2.30;;;23.60;87.50;;;;;;4940450;28;20582;-76
2022/08/24 01:28:16;;;;;;;4.90;1.80;;;23.60;87.10;;;;;;4957383;28;20574;-76
2022/08/24 01:30:43;;;;;;;5.10;2.20;;;23.60;88.10;;;;;;4957083;28;20567;-76
2022/08/24 01:33:20;;;;;;;3.00;1.60;;;23.50;87.90;;;;;;4957047;28;20705;-76
2022/08/24 01:35:46;;;;;;;3.30;1.80;;;23.50;88.40;;;;;;4957354;28;20578;-75
2022/08/24 01:38:12;;;;;;;3.60;1.77;;;23.50;88.70;;;;;;4974362;28;20575;-76
2022/08/24 01:40:43;;;;;;;3.03;1.90;;;23.50;89.10;;;;;;4956661;28;20626;-76
2022/08/24 01:43:11;;;;;;;3.10;1.63;;;23.50;90.00;;;;;;4956815;28;20598;-75
2022/08/24 01:45:37;;;;;;;3.87;1.73;;;23.40;90.10;;;;;;4956953;28;20609;-76
2022/08/24 01:48:03;;;;;;;2.50;1.60;;;23.40;90.20;;;;;;4956802;28;20598;-76
2022/08/24 01:50:30;;;;;;;2.43;1.43;;;23.40;90.40;;;;;;4956149;28;20932;-75
2022/08/24 01:53:00;;;;;;;3.00;2.07;;;23.40;90.60;;;;;;4956528;28;20702;-75
2022/08/24 01:55:27;;;;;;;2.60;1.60;;;23.40;90.90;;;;;;4955558;28;20571;-75
2022/08/24 01:57:53;;;;;;;2.70;1.50;;;23.30;91.00;;;;;;4973952;28;20666;-75
2022/08/24 02:00:20;;;;;;;4.10;1.20;;;23.30;91.10;;;;;;4973546;28;20626;-75
2022/08/24 02:02:46;;;;;;;3.40;1.80;;;23.30;91.30;;;;;;4957525;28;20955;-75
2022/08/24 02:05:15;;;;;;;3.93;1.83;;;23.20;91.40;;;;;;4956805;28;20575;-74
2022/08/24 02:07:44;;;;;;;3.70;1.83;;;23.20;91.60;;;;;;4956491;28;20567;-74
2022/08/24 02:10:14;;;;;;;5.30;1.80;;;23.20;91.70;;;;;;4924441;28;20587;-74
2022/08/24 02:12:43;;;;;;;8.70;2.27;;;23.20;91.90;;;;;;4956105;28;20710;-74
2022/08/24 02:15:10;;;;;;;5.70;2.60;;;23.20;91.90;;;;;;4956372;28;21249;-74
2022/08/24 02:17:36;;;;;;;3.40;1.80;;;23.20;91.90;;;;;;4973553;28;20937;-74
2022/08/24 02:20:05;;;;;;;4.63;2.47;;;23.20;92.00;;;;;;4956000;28;20622;-75
2022/08/24 02:22:31;;;;;;;3.40;2.40;;;23.10;92.10;;;;;;4956292;28;20595;-74
2022/08/24 02:24:57;;;;;;;3.77;2.27;;;23.10;92.20;;;;;;4973603;28;20587;-74
2022/08/24 02:27:23;;;;;;;4.60;2.07;;;23.10;92.30;;;;;;4941029;28;20598;-75
2022/08/24 02:29:49;;;;;;;8.37;2.30;;;23.00;92.40;;;;;;4956884;28;20179;-75
2022/08/24 02:32:15;;;;;;;4.27;2.20;;;23.00;92.50;;;;;;4973327;28;20594;-75
2022/08/24 02:34:42;;;;;;;5.50;2.70;;;23.00;92.60;;;;;;4956168;28;20233;-74
2022/08/24 02:37:09;;;;;;;3.53;1.73;;;23.00;92.70;;;;;;4940221;28;20582;-75
2022/08/24 02:39:35;;;;;;;4.63;1.90;;;23.00;92.80;;;;;;4940148;28;20701;-74
2022/08/24 02:42:05;;;;;;;4.30;1.93;;;22.90;92.90;;;;;;4955724;28;20618;-75
2022/08/24 02:44:31;;;;;;;3.67;1.93;;;22.90;93.00;;;;;;4973324;28;20567;-75
2022/08/24 02:46:59;;;;;;;3.10;1.70;;;22.90;93.10;;;;;;4956002;28;20571;-75
2022/08/24 02:49:25;;;;;;;5.10;2.50;;;22.80;93.20;;;;;;4939897;28;20579;-74
2022/08/24 02:51:51;;;;;;;3.67;2.10;;;22.80;93.40;;;;;;4956261;28;20626;-74
2022/08/24 02:54:19;;;;;;;5.93;2.43;;;22.80;93.60;;;;;;4956003;28;20590;-74
2022/08/24 02:56:50;;;;;;;9.10;2.40;;;22.70;93.60;;;;;;4956961;28;20658;-74
2022/08/24 02:59:17;;;;;;;4.53;1.60;;;22.70;93.70;;;;;;4955200;28;20622;-75
2022/08/24 03:01:43;;;;;;;13.90;2.40;;;22.70;93.90;;;;;;4939538;28;20633;-75
2022/08/24 03:04:10;;;;;;;4.70;2.53;;;22.60;93.90;;;;;;4972905;28;21121;-75
2022/08/24 03:06:36;;;;;;;4.67;1.50;;;22.60;94.10;;;;;;4955117;28;20587;-75
2022/08/24 03:09:02;;;;;;;4.83;1.80;;;22.60;94.20;;;;;;4955140;28;21136;-75
2022/08/24 03:11:28;;;;;;;6.80;2.30;;;22.50;94.30;;;;;;4939130;28;20757;-75
2022/08/24 03:13:56;;;;;;;8.83;2.60;;;22.50;94.50;;;;;;4955375;28;20713;-75
2022/08/24 03:16:22;;;;;;;6.20;2.70;;;22.50;94.60;;;;;;4955530;28;20258;-76
2022/08/24 03:18:48;;;;;;;6.20;2.20;;;22.50;94.70;;;;;;4955459;28;21136;-75
2022/08/24 03:21:15;;;;;;;5.57;2.20;;;22.50;94.80;;;;;;4955026;28;20172;-76
2022/08/24 03:23:42;;;;;;;5.80;2.17;;;22.50;95.10;;;;;;4955425;28;20694;-75
2022/08/24 03:26:10;;;;;;;5.37;1.97;;;22.40;95.10;;;;;;4955470;28;20691;-75
2022/08/24 03:28:36;;;;;;;3.70;2.50;;;22.40;95.30;;;;;;4955464;28;20599;-76
2022/08/24 03:31:02;;;;;;;3.77;2.17;;;22.40;95.70;;;;;;4972160;28;20574;-75
2022/08/24 03:33:28;;;;;;;8.00;2.23;;;22.40;96.10;;;;;;4954777;28;20654;-75
2022/08/24 03:35:55;;;;;;;4.33;2.63;;;22.40;96.40;;;;;;4937132;28;20626;-75
2022/08/24 03:38:22;;;;;;;5.00;3.00;;;22.40;96.60;;;;;;4954417;28;20589;-75
2022/08/24 03:40:48;;;;;;;6.00;2.73;;;22.40;96.70;;;;;;4954968;28;20627;-76
2022/08/24 03:46:01;;;;;;;3.43;2.33;;;22.40;97.40;;;;;;4968732;23;20220;-76
2022/08/24 03:48:29;;;;;;;4.93;2.10;;;22.40;97.20;;;;;;4941589;28;20627;-76
2022/08/24 03:50:56;;;;;;;4.37;2.10;;;22.40;97.30;;;;;;4935987;29;20568;-75
2022/08/24 03:53:23;;;;;;;3.23;2.13;;;22.40;97.50;;;;;;4951760;29;20612;-76
2022/08/24 03:55:51;;;;;;;5.47;2.60;;;22.40;97.60;;;;;;4952025;28;20602;-75
2022/08/24 03:58:17;;;;;;;3.17;2.20;;;22.40;97.70;;;;;;4953290;28;20586;-75
2022/08/24 04:00:44;;;;;;;6.20;2.47;;;22.40;97.80;;;;;;4935752;29;20628;-75
2022/08/24 04:03:12;;;;;;;7.23;2.67;;;22.40;98.20;;;;;;4936089;29;20606;-76
2022/08/24 04:05:41;;;;;;;4.60;2.67;;;22.40;97.90;;;;;;4936155;29;20630;-76
2022/08/24 04:08:07;;;;;;;3.47;2.10;;;22.40;98.10;;;;;;4936363;29;20928;-75
2022/08/24 04:10:35;;;;;;;3.60;2.67;;;22.40;98.20;;;;;;4919948;29;20572;-75
2022/08/24 04:13:01;;;;;;;3.33;2.20;;;22.40;98.30;;;;;;4936034;29;20575;-75
2022/08/24 04:15:28;;;;;;;4.43;2.93;;;22.40;98.40;;;;;;4936053;29;20600;-76
2022/08/24 04:17:55;;;;;;;3.17;1.97;;;22.30;98.60;;;;;;4936848;29;20315;-76
2022/08/24 04:20:22;;;;;;;4.60;2.83;;;22.30;98.60;;;;;;4939156;29;20628;-76
2022/08/24 04:22:50;;;;;;;6.97;2.47;;;22.30;98.60;;;;;;4907903;29;20580;-76
2022/08/24 04:25:16;;;;;;;6.97;2.67;;;22.30;98.70;;;;;;4956656;28;20611;-75
2022/08/24 04:27:42;;;;;;;4.97;2.30;;;22.30;98.60;;;;;;4938580;29;20957;-74
2022/08/24 04:30:09;;;;;;;7.93;2.90;;;22.30;98.70;;;;;;4938111;29;20564;-75
2022/08/24 04:32:55;;;;;;;3.27;1.90;;;22.30;98.80;;;;;;4941687;29;20591;-76
2022/08/24 04:35:20;;;;;;;2.77;2.33;;;22.30;98.90;;;;;;4939321;29;21177;-75
2022/08/24 04:37:46;;;;;;;4.67;2.57;;;22.30;98.90;;;;;;4923392;29;20463;-74
2022/08/24 04:40:12;;;;;;;6.60;2.60;;;22.30;99.00;;;;;;4939008;29;20247;-73
2022/08/24 04:42:44;;;;;;;3.87;2.10;;;22.20;99.00;;;;;;4923292;29;20603;-72
2022/08/24 04:45:10;;;;;;;6.77;2.33;;;22.20;99.00;;;;;;4938849;29;20654;-74
2022/08/24 04:47:36;;;;;;;4.67;2.70;;;22.30;99.20;;;;;;4956171;28;20191;-73
2022/08/24 04:50:02;;;;;;;4.40;2.23;;;22.20;99.20;;;;;;4922872;29;20185;-74
2022/08/24 04:52:29;;;;;;;3.70;2.90;;;22.30;99.20;;;;;;4938670;29;20560;-73
2022/08/24 04:54:55;;;;;;;4.70;2.70;;;22.30;99.10;;;;;;4938677;29;20591;-73
2022/08/24 04:57:23;;;;;;;4.63;2.73;;;22.20;99.00;;;;;;4938850;29;21018;-73
2022/08/24 04:59:54;;;;;;;5.27;1.90;;;22.20;98.90;;;;;;4938495;29;21014;-73
2022/08/24 05:02:21;;;;;;;2.40;2.00;;;22.20;98.90;;;;;;4938779;29;20671;-74
2022/08/24 05:04:49;;;;;;;6.00;2.30;;;22.20;98.90;;;;;;4938596;29;20606;-73
2022/08/24 05:07:17;;;;;;;3.20;2.13;;;22.20;98.80;;;;;;4922920;29;21105;-73
2022/08/24 05:09:43;;;;;;;3.47;2.73;;;22.20;98.70;;;;;;4938341;29;20927;-74
2022/08/24 05:12:10;;;;;;;4.80;1.90;;;22.30;98.70;;;;;;4938620;29;20584;-74
2022/08/24 05:14:39;;;;;;;6.47;2.77;;;22.30;98.70;;;;;;4938384;29;20691;-74
2022/08/24 05:17:05;;;;;;;5.60;2.70;;;22.30;98.70;;;;;;4922877;29;20670;-73
2022/08/24 05:19:31;;;;;;;3.07;1.97;;;22.30;98.70;;;;;;4938164;29;20191;-73
2022/08/24 05:21:59;;;;;;;5.40;2.77;;;22.30;99.10;;;;;;4938090;29;20572;-74
2022/08/24 05:24:25;;;;;;;3.97;2.47;;;22.30;98.70;;;;;;4938020;29;20603;-74
2022/08/24 05:26:52;;;;;;;4.50;2.70;;;22.30;98.70;;;;;;4922239;29;20603;-74
2022/08/24 05:29:18;;;;;;;6.87;2.93;;;22.40;98.70;;;;;;4937651;29;20547;-74
2022/08/24 05:31:48;;;;;;;6.17;2.80;;;22.40;98.80;;;;;;4922894;29;20580;-73
2022/08/24 05:34:15;;;;;;;4.73;2.97;;;22.40;98.70;;;;;;4938204;28;20966;-74
2022/08/24 05:36:41;;;;;;;3.87;2.50;;;22.50;98.70;;;;;;4913155;29;21272;-74
2022/08/24 05:39:13;;;;;;;3.83;2.60;;;22.50;98.60;;;;;;4938124;29;20986;-73
2022/08/24 05:41:43;;;;;;;3.90;2.20;;;22.50;98.50;;;;;;4952211;28;21136;-72
2022/08/24 05:44:16;;;;;;;6.00;3.17;;;22.60;98.40;;;;;;4949850;28;20599;-72
2022/08/24 05:46:44;;;;;;;6.77;3.60;;;22.60;98.30;;;;;;4957115;28;20575;-72
2022/08/24 05:49:10;;;;;;;6.07;2.67;;;22.70;98.40;;;;;;4976494;28;20563;-80
2022/08/24 05:51:37;;;;;;;6.00;2.67;;;22.70;98.00;;;;;;4925516;28;20606;-80
2022/08/24 05:54:06;;;;;;;4.57;2.50;;;22.80;98.00;;;;;;4956900;28;21142;-80
2022/08/24 05:56:51;;;;;;;4.70;2.47;;;22.80;97.90;;;;;;4944272;28;20601;-77
2022/08/24 05:59:18;;;;;;;3.77;2.80;;;22.90;97.90;;;;;;4929036;29;20628;-78
2022/08/24 06:01:45;;;;;;;5.57;2.70;;;23.00;97.80;;;;;;4946269;28;20658;-78
2022/08/24 06:04:12;;;;;;;4.47;2.33;;;23.00;97.70;;;;;;4945891;28;20580;-76
2022/08/24 06:06:39;;;;;;;4.53;2.70;;;23.10;97.60;;;;;;4913722;29;20269;-76
2022/08/24 06:09:05;;;;;;;4.00;2.43;;;23.10;97.30;;;;;;4956221;28;20642;-77
2022/08/24 06:11:36;;;;;;;4.53;2.50;;;23.20;97.20;;;;;;4973668;28;20575;-77
2022/08/24 06:14:11;;;;;;;4.50;2.87;;;23.20;96.70;;;;;;4956575;28;20579;-76
2022/08/24 06:16:47;;;;;;;2.33;2.00;;;23.30;96.50;;;;;;4940756;28;20944;-77
2022/08/24 06:19:16;;;;;;;3.20;2.30;;;23.40;96.50;;;;;;4940389;28;20623;-77
2022/08/24 06:21:45;;;;;;;6.30;2.07;;;23.40;96.10;;;;;;4952570;28;20634;-79
2022/08/24 06:24:14;;;;;;;10.80;2.90;;;23.50;95.90;;;;;;4924884;28;21157;-74
2022/08/24 06:29:26;;;;;;;9.63;2.83;;;23.70;95.50;;;;;;4944770;29;20639;-74
2022/08/24 06:31:56;;;;;;;3.07;2.70;;;23.90;95.30;;;;;;4921738;29;20588;-74
2022/08/24 06:34:24;;;;;;;4.40;2.37;;;24.30;95.60;;;;;;4937064;29;20623;-73
2022/08/24 06:36:51;;;;;;;4.90;2.20;;;25.00;95.40;;;;;;4921460;29;20564;-73
2022/08/24 06:39:17;;;;;;;4.60;1.90;;;25.80;94.90;;;;;;4939675;29;20644;-73
2022/08/24 06:41:45;;;;;;;6.70;2.07;;;26.60;95.30;;;;;;4951942;28;20586;-73
2022/08/24 06:44:18;;;;;;;2.63;1.33;;;27.40;94.20;;;;;;4955688;28;20618;-73
2022/08/24 06:46:50;;;;;;;3.07;1.60;;;28.40;94.10;;;;;;4940077;28;20579;-73
2022/08/24 06:49:16;;;;;;;2.60;1.63;;;29.40;93.60;;;;;;4948268;28;20591;-74
2022/08/24 06:51:42;;;;;;;7.33;2.60;;;30.30;91.70;;;;;;4956033;28;20590;-74
2022/08/24 06:54:09;;;;;;;3.57;1.80;;;30.90;85.20;;;;;;4972889;28;20670;-74
2022/08/24 06:56:36;;;;;;;4.60;1.80;;;31.50;81.90;;;;;;4939936;28;20571;-73
2022/08/24 06:59:04;;;;;;;3.50;1.93;;;32.20;81.00;;;;;;4940014;28;20627;-73
2022/08/24 07:01:31;;;;;;;6.30;1.57;;;32.60;74.80;;;;;;4939954;28;20568;-74
2022/08/24 07:03:58;;;;;;;4.33;1.73;;;33.00;71.70;;;;;;4941465;28;20694;-74
2022/08/24 07:06:42;;;;;;;2.23;1.40;;;33.40;71.30;;;;;;4973061;28;20578;-74
2022/08/24 07:09:08;;;;;;;2.37;1.67;;;34.00;68.20;;;;;;4955769;28;21208;-74
2022/08/24 07:11:35;;;;;;;2.77;1.30;;;34.30;65.60;;;;;;4945252;29;20604;-74
2022/08/24 07:14:01;;;;;;;3.03;1.47;;;34.60;63.50;;;;;;4946114;28;20610;-74
2022/08/24 07:16:27;;;;;;;4.30;1.80;;;34.90;61.40;;;;;;4949768;28;20583;-74
2022/08/24 07:19:01;;;;;;;4.70;2.00;;;35.50;60.10;;;;;;4955453;28;20190;-74
2022/08/24 07:21:28;;;;;;;2.60;1.43;;;35.90;59.00;;;;;;4955083;28;20586;-74
2022/08/24 07:23:56;;;;;;;4.80;1.57;;;36.20;58.00;;;;;;4955505;28;20579;-74
2022/08/24 07:26:26;;;;;;;5.50;1.50;;;36.70;57.20;;;;;;4955625;28;20571;-74
2022/08/24 07:29:00;;;;;;;3.23;1.50;;;37.00;53.80;;;;;;4954826;28;20591;-74
2022/08/24 07:31:28;;;;;;;3.00;1.40;;;37.10;52.70;;;;;;4955241;28;20629;-73
2022/08/24 07:34:07;;;;;;;2.37;1.20;;;37.40;52.20;;;;;;4939791;28;20946;-74
2022/08/24 07:36:34;;;;;;;2.30;1.30;;;37.60;51.10;;;;;;4939360;28;21152;-74
2022/08/24 07:39:00;;;;;;;2.27;1.40;;;37.70;49.90;;;;;;4957200;28;20575;-74
2022/08/24 07:41:27;;;;;;;5.83;1.13;;;37.70;49.00;;;;;;4955209;28;20579;-74
2022/08/24 07:43:55;;;;;;;2.60;1.37;;;38.00;48.80;;;;;;4955463;28;21399;-74
2022/08/24 07:46:21;;;;;;;5.20;1.27;;;38.20;48.10;;;;;;4942699;28;20607;-74
2022/08/24 07:48:49;;;;;;;4.60;1.10;;;38.60;47.10;;;;;;4947513;28;20590;-74
2022/08/24 07:51:18;;;;;;;4.90;1.47;;;38.90;46.90;;;;;;4954917;28;20699;-74
2022/08/24 07:53:45;;;;;;;2.70;1.43;;;39.10;46.00;;;;;;4959397;28;20606;-74
2022/08/24 07:56:12;;;;;;;7.20;1.50;;;39.40;45.90;;;;;;4976621;28;21093;-74
2022/08/24 07:58:41;;;;;;;2.87;1.40;;;39.50;44.40;;;;;;4958945;28;20613;-74
2022/08/24 08:01:08;;;;;;;3.40;1.40;;;39.50;44.00;;;;;;4942985;28;20729;-74
2022/08/24 08:03:34;;;;;;;3.73;1.13;;;39.80;43.90;;;;;;4943310;28;20171;-75
2022/08/24 08:06:04;;;;;;;2.60;1.13;;;40.20;43.70;;;;;;4932032;29;20991;-74
2022/08/24 08:08:30;;;;;;;3.07;1.70;;;40.30;42.60;;;;;;4939897;29;20630;-75
2022/08/24 08:10:56;;;;;;;6.00;1.37;;;40.30;41.40;;;;;;4938823;28;20587;-74
2022/08/24 08:13:22;;;;;;;3.90;1.20;;;40.20;40.70;;;;;;4932017;28;20593;-74
2022/08/24 08:15:49;;;;;;;4.17;1.27;;;40.30;41.10;;;;;;4953358;28;20710;-75
2022/08/24 08:18:17;;;;;;;3.10;1.20;;;40.60;40.80;;;;;;4958793;28;20586;-74
2022/08/24 08:20:44;;;;;;;4.37;1.77;;;40.60;40.10;;;;;;4942556;28;21297;-74
2022/08/24 08:26:14;;;;;;;4.83;1.30;;;41.00;40.20;;;;;;4955702;28;20611;-75
2022/08/24 08:28:57;;;;;;;5.87;1.60;;;41.60;39.90;;;;;;4958753;28;20737;-75
2022/08/24 08:31:23;;;;;;;3.50;1.17;;;42.00;39.10;;;;;;4942083;28;20678;-74
2022/08/24 08:33:49;;;;;;;2.97;1.27;;;41.90;37.90;;;;;;4958366;28;20172;-75
2022/08/24 08:36:17;;;;;;;5.50;1.70;;;41.90;38.20;;;;;;4958344;28;20199;-75
2022/08/24 08:38:48;;;;;;;4.83;1.40;;;42.10;37.90;;;;;;4955558;28;20576;-74
2022/08/24 08:41:16;;;;;;;3.80;1.47;;;42.10;37.40;;;;;;4923101;29;20607;-74
2022/08/24 08:44:12;;;;;;;3.87;1.40;;;42.20;36.90;;;;;;4943448;28;20994;-74
2022/08/24 08:46:45;;;;;;;4.60;1.20;;;42.20;36.90;;;;;;4944661;29;20642;-74
2022/08/24 08:49:38;;;;;;;3.50;1.60;;;42.40;37.30;;;;;;4954005;28;20586;-75
2022/08/24 08:52:16;;;;;;;3.73;1.20;;;42.70;36.30;;;;;;4949377;28;20587;-76
2022/08/24 08:55:04;;;;;;;2.83;1.40;;;43.10;36.30;;;;;;4920370;29;20711;-76
2022/08/24 08:57:52;;;;;;;2.00;1.30;;;43.40;35.70;;;;;;4940038;29;20596;-73
2022/08/24 09:00:23;;;;;;;4.67;1.20;;;43.60;35.70;;;;;;4955046;28;20642;-73
2022/08/24 09:03:13;;;;;;;2.60;1.27;;;43.90;34.20;;;;;;4940748;28;20658;-73
2022/08/24 09:06:12;;;;;;;3.30;1.57;;;44.10;34.00;;;;;;4944098;28;21219;-73
2022/08/24 09:08:50;;;;;;;5.03;1.43;;;44.40;34.30;;;;;;4966922;28;20595;-73
2022/08/24 09:11:42;;;;;;;2.87;1.20;;;44.70;34.50;;;;;;4941526;28;20585;-73
2022/08/24 09:14:33;;;;;;;3.57;1.37;;;45.00;34.30;;;;;;4957855;28;20571;-74
2022/08/24 09:17:18;;;;;;;5.53;1.23;;;45.30;34.10;;;;;;4941797;28;20943;-74
2022/08/24 09:20:13;;;;;;;4.07;1.30;;;45.70;33.90;;;;;;4974997;28;20646;-74
2022/08/24 09:22:46;;;;;;;4.27;1.37;;;45.90;31.20;;;;;;4957943;28;20578;-74
2022/08/24 09:25:27;;;;;;;3.33;1.57;;;45.80;31.70;;;;;;4957807;28;20591;-74
2022/08/24 09:28:21;;;;;;;3.27;1.40;;;45.80;31.50;;;;;;4957575;28;20579;-73
2022/08/24 09:31:24;;;;;;;3.47;1.27;;;46.00;31.60;;;;;;4957066;28;20578;-73
2022/08/24 09:34:26;;;;;;;3.47;1.43;;;46.30;32.00;;;;;;4958142;28;20571;-74
2022/08/24 09:37:32;;;;;;;2.47;1.40;;;46.50;30.00;;;;;;4939123;28;20585;-72
2022/08/24 09:40:17;;;;;;;6.40;1.60;;;46.30;27.90;;;;;;4933583;28;20667;-73
2022/08/24 09:43:07;;;;;;;2.80;1.90;;;45.80;29.40;;;;;;4955431;28;21166;-73
2022/08/24 09:45:39;;;;;;;6.70;1.60;;;45.70;29.90;;;;;;4937895;29;20667;-73
2022/08/24 09:48:33;;;;;;;4.43;1.40;;;45.80;29.40;;;;;;4937931;29;20583;-74
2022/08/24 09:51:37;;;;;;;7.40;1.47;;;46.00;30.00;;;;;;4937686;29;20638;-73
2022/08/24 09:54:20;;;;;;;3.80;1.30;;;46.20;29.40;;;;;;4937680;28;20630;-73
2022/08/24 09:57:16;;;;;;;2.97;1.50;;;46.40;29.20;;;;;;4955165;29;20667;-74
2022/08/24 10:00:06;;;;;;;5.33;2.07;;;46.30;29.30;;;;;;4960307;28;20701;-74
2022/08/24 10:02:46;;;;;;;2.50;1.30;;;46.00;28.50;;;;;;4941382;28;20586;-73
2022/08/24 10:05:21;;;;;;;2.30;1.07;;;45.80;28.10;;;;;;4974043;28;20602;-74
2022/08/24 10:08:33;;;;;;;7.43;1.90;;;45.30;28.30;;;;;;4978214;23;20671;-79
2022/08/24 10:11:10;;;;;;;3.63;1.60;;;45.40;28.70;;;;;;4913308;29;21082;-78
2022/08/24 10:13:52;;;;;;;4.50;1.20;;;45.50;28.40;;;;;;4946219;28;20948;-80
2022/08/24 10:16:44;;;;;;;7.87;1.30;;;45.60;28.70;;;;;;4980563;28;20622;-79
2022/08/24 10:19:41;;;;;;;3.43;1.20;;;45.90;29.20;;;;;;4946811;28;20650;-80
2022/08/24 10:22:19;;;;;;;2.63;1.20;;;46.10;28.60;;;;;;4943594;29;20582;-78
2022/08/24 10:25:26;;;;;;;2.30;1.53;;;45.80;27.80;;;;;;4970124;28;20598;-79
2022/08/24 10:28:10;;;;;;;4.10;1.70;;;45.50;27.90;;;;;;4970033;28;20646;-78
2022/08/24 10:31:07;;;;;;;2.33;1.30;;;45.20;27.70;;;;;;4951213;28;20641;-78
2022/08/24 10:33:44;;;;;;;4.90;1.20;;;45.40;28.60;;;;;;4929697;28;20604;-79
2022/08/24 10:36:39;;;;;;;2.23;1.47;;;45.60;27.50;;;;;;4957941;28;20594;-79
2022/08/24 10:39:47;;;;;;;3.43;1.07;;;45.80;27.50;;;;;;4972900;28;20746;-79
2022/08/24 10:45:45;;;;;;;2.80;1.20;;;45.90;27.40;;;;;;4958192;28;20958;-79
2022/08/24 10:48:29;;;;;;;1.80;1.10;;;45.50;26.80;;;;;;4970789;28;20645;-79
2022/08/24 10:51:01;;;;;;;2.63;1.53;;;45.20;26.40;;;;;;4964700;28;20590;-78
2022/08/24 10:53:29;;;;;;;2.50;1.10;;;44.80;26.80;;;;;;4973038;28;20567;-78
2022/08/24 10:56:14;;;;;;;1.60;1.20;;;44.40;26.90;;;;;;4972997;28;20575;-79
2022/08/24 10:58:46;;;;;;;2.00;1.00;;;44.20;27.40;;;;;;4973057;28;20645;-79
2022/08/24 11:01:15;;;;;;;2.10;1.27;;;44.20;27.90;;;;;;4969859;28;21227;-79
2022/08/24 11:03:52;;;;;;;2.73;1.10;;;44.40;27.80;;;;;;4972383;28;20593;-79
2022/08/24 11:06:19;;;;;;;4.43;1.20;;;44.50;27.40;;;;;;4936549;29;20580;-80
2022/08/24 11:09:02;;;;;;;2.87;1.17;;;44.50;27.50;;;;;;4957225;28;20677;-79
2022/08/24 11:11:49;;;;;;;5.80;1.63;;;44.30;26.20;;;;;;4978207;28;20606;-79
2022/08/24 11:14:14;;;;;;;2.93;1.20;;;44.00;27.10;;;;;;4969621;28;20614;-79
2022/08/24 11:16:43;;;;;;;2.13;1.07;;;43.90;26.90;;;;;;4984288;28;20582;-79
2022/08/24 11:19:30;;;;;;;2.57;1.20;;;43.90;27.00;;;;;;4992247;28;20773;-79
2022/08/24 11:22:00;;;;;;;1.53;0.90;;;43.90;27.60;;;;;;4968631;28;20723;-79
2022/08/24 11:24:45;;;;;;;1.63;0.90;;;44.00;27.80;;;;;;4970535;28;20723;-79
2022/08/24 11:27:32;;;;;;;2.40;0.90;;;44.10;27.60;;;;;;4952176;28;21165;-79
2022/08/24 11:30:20;;;;;;;1.40;0.80;;;44.20;27.50;;;;;;4978192;28;20956;-81
2022/08/24 11:32:55;;;;;;;2.03;0.90;;;44.30;27.60;;;;;;4978550;28;20586;-80
2022/08/24 11:35:47;;;;;;;3.23;1.00;;;44.40;27.90;;;;;;4990487;28;20666;-81
2022/08/24 11:38:18;;;;;;;2.27;0.70;;;44.40;27.20;;;;;;4967848;28;20642;-81
2022/08/24 11:41:05;;;;;;;2.13;0.80;;;44.50;26.90;;;;;;4995367;28;20731;-80
2022/08/24 11:44:08;;;;;;;1.73;0.87;;;44.50;27.20;;;;;;4995942;28;20607;-81
2022/08/24 11:47:13;;;;;;;1.50;0.80;;;44.50;26.30;;;;;;4996793;28;20944;-80
2022/08/24 11:49:51;;;;;;;3.00;0.80;;;44.50;26.80;;;;;;4903034;28;20603;-80
2022/08/24 11:52:44;;;;;;;3.50;1.10;;;44.50;26.90;;;;;;4991588;28;20562;-80
2022/08/24 11:55:38;;;;;;;3.43;0.87;;;44.40;26.50;;;;;;4983958;28;20590;-80
2022/08/24 11:58:34;;;;;;;2.47;0.80;;;44.20;25.70;;;;;;5009182;28;20594;-79
2022/08/24 12:01:31;;;;;;;3.70;1.00;;;44.00;25.90;;;;;;5011440;28;20629;-79
2022/08/24 12:04:02;;;;;;;1.87;0.80;;;43.60;26.30;;;;;;5013067;28;20566;-79
2022/08/24 12:06:38;;;;;;;4.13;0.90;;;43.40;26.30;;;;;;5004200;28;20589;-81
2022/08/24 12:09:31;;;;;;;1.93;0.87;;;43.20;26.20;;;;;;4983962;28;20625;-81
2022/08/24 12:12:11;;;;;;;1.70;0.77;;;42.90;26.40;;;;;;4982739;28;20595;-80
2022/08/24 12:14:47;;;;;;;1.40;0.70;;;42.80;26.30;;;;;;4980095;28;20603;-81
2022/08/24 12:17:17;;;;;;;2.10;0.80;;;42.40;26.30;;;;;;4959385;29;20596;-80
2022/08/24 12:19:54;;;;;;;2.83;0.90;;;42.00;26.10;;;;;;4963318;28;20644;-81
2022/08/24 12:22:21;;;;;;;2.80;0.90;;;41.50;26.40;;;;;;4979567;28;20582;-81
2022/08/24 12:24:52;;;;;;;4.23;1.17;;;41.30;26.60;;;;;;4948020;28;20614;-80
2022/08/24 12:27:23;;;;;;;2.00;0.90;;;41.00;26.60;;;;;;4962489;28;21199;-81
2022/08/24 12:30:03;;;;;;;1.93;0.90;;;40.60;26.40;;;;;;4975120;28;20674;-80
2022/08/24 12:32:36;;;;;;;3.03;1.00;;;40.30;26.50;;;;;;4971682;28;20703;-80
2022/08/24 12:35:17;;;;;;;1.60;0.77;;;39.90;26.50;;;;;;4965844;28;21007;-82
2022/08/24 12:37:50;;;;;;;2.00;0.90;;;39.40;26.70;;;;;;4976424;28;20615;-81
2022/08/24 12:40:22;;;;;;;1.90;1.00;;;39.20;26.80;;;;;;4952352;29;20665;-81
2022/08/24 12:42:50;;;;;;;1.80;0.90;;;39.10;27.10;;;;;;4983125;28;20610;-81
2022/08/24 12:45:19;;;;;;;1.87;0.90;;;39.10;27.20;;;;;;4962574;28;20610;-82
2022/08/24 12:48:23;;;;;;;2.10;0.80;;;39.00;27.30;;;;;;4979555;28;20599;-82
2022/08/24 12:51:30;;;;;;;2.43;0.90;;;38.80;27.80;;;;;;4961036;28;20613;-82
2022/08/24 12:54:05;;;;;;;2.00;1.17;;;38.60;27.30;;;;;;4923831;28;20597;-82
2022/08/24 12:56:50;;;;;;;2.80;1.40;;;38.40;27.30;;;;;;4992559;28;20612;-81
2022/08/24 12:59:16;;;;;;;2.20;0.90;;;38.20;27.50;;;;;;4970135;28;21006;-82
2022/08/24 13:01:47;;;;;;;1.90;0.87;;;37.90;27.60;;;;;;4977990;28;20562;-82
2022/08/24 13:04:36;;;;;;;1.60;0.80;;;37.70;27.60;;;;;;4980764;28;20170;-81
2022/08/24 13:07:22;;;;;;;2.43;0.90;;;37.40;27.80;;;;;;4949411;28;20925;-80
2022/08/24 13:09:51;;;;;;;3.07;1.00;;;37.20;28.00;;;;;;4943262;29;20564;-81
2022/08/24 13:12:44;;;;;;;1.80;0.80;;;36.90;27.90;;;;;;4962586;28;20690;-81
2022/08/24 13:15:22;;;;;;;3.17;0.90;;;36.60;28.10;;;;;;4966877;28;20584;-81
2022/08/24 13:18:20;;;;;;;5.37;1.10;;;36.30;28.20;;;;;;4978172;28;20708;-81
2022/08/24 13:20:49;;;;;;;2.13;0.90;;;36.20;28.40;;;;;;4959165;28;21008;-81
2022/08/24 13:23:19;;;;;;;2.10;0.80;;;36.10;28.60;;;;;;4958156;28;20695;-81
2022/08/24 13:25:54;;;;;;;3.83;0.90;;;36.00;28.60;;;;;;4976097;28;20605;-81
2022/08/24 13:28:20;;;;;;;1.60;0.80;;;36.00;28.80;;;;;;4951329;29;20634;-80
2022/08/24 13:31:11;;;;;;;1.80;0.83;;;36.00;28.90;;;;;;4962599;29;20572;-81
2022/08/24 13:33:43;;;;;;;2.50;1.00;;;35.90;29.00;;;;;;4951193;29;20180;-82
2022/08/24 13:36:28;;;;;;;3.10;1.00;;;36.00;29.00;;;;;;4984021;28;20690;-81